QUAO2: Spring River Near Quapaw, OK

Data processed at Sun Apr 30 2017 22:20


All information presented herein is the property of the government of the United States of America and may be revised or deleted at any time without prior notice.
Dissemination of this information without the expressed written consent of the Public Affairs Office, Tulsa District U.S. Army Corps of Engineers is strictly prohibited.
These data are gathered electronically and, as presented, have not undergone any form of quality control. These data are not guaranteed to be valid or correct.
Go to home page.
Go to station list.
Go to station map.

Upstream stations:

Downstream station:
Previous Day
Next Day
Current Day
    
SHEF ID:       QUAO2     Spring River near Quapaw, OK
STATION TYPE:  

               PRECIP     STAGE  STAGE(2)  RIV-FLOW  BAT-LOAD
                   in        ft        ft       cfs      volt
              Ccp-Rev   Ccp-Rev   Ccp-Rev   Ccp-Rev   Ccp-Rev
(US/Central)
04/30 00:00      0.06     24.97     23.70     52360     12.33
04/30 01:00      0.21     25.61     24.14     55137     12.33
04/30 02:00      0.00     26.36     24.76     58469     12.33
04/30 03:00      0.00     27.03     25.34     61577     12.33
04/30 04:00      0.00     27.78     25.88     65304     12.33
04/30 05:00      0.02     28.43     26.85     68617     12.33
04/30 06:00      0.04     29.10     27.37     72234     12.41
04/30 07:00      0.00     29.60     27.85     75028     12.41
04/30 08:00      0.00     30.12     28.12     77989     12.41
04/30 09:00      0.00     30.62     28.66     80890     12.41
04/30 10:00      0.00     31.08     29.23     83604     12.49
04/30 11:00      0.00     31.43     29.23     85817     12.73
04/30 12:00      0.00     31.75     29.57     87909     13.05
04/30 13:00      0.00     32.09     30.06     90162     13.21
04/30 14:00      0.00     32.46     30.29     92656     13.44
04/30 15:00      0.00     32.78     30.92     94848     13.44
04/30 16:00      0.00     33.13     31.03     97276     13.44
04/30 17:00      0.00     33.39     31.34     99101     13.13
04/30 18:00      0.00     33.55     31.52    100232     12.97
04/30 19:00      0.00     33.81     31.84    102086     12.89
04/30 20:00      0.00     33.96     31.98    103164     12.73
04/30 21:00      0.00     34.13     32.04    104393     12.65
04/30 22:00      0.00     34.36     32.03    106068     12.57
04/30 23:00      ----      ----      ----      ----      ----